Time;durP1;ratioP1;P1;durP2;ratioP2;P2;SDS_P1;SDS_P2;PMS_P1;PMS_P2;Temp;Humidity;BMP_temperature;BMP_pressure;BME280_temperature;BME280_humidity;BME280_pressure;Samples;Min_cycle;Max_cycle;Signal;HPM_P1;HPM_P2
2021/05/22 00:02:12;;;;;;;;;;;;;;;;;;;;;
2021/05/22 00:04:50;;;;;;;6.47;2.70;;;11.20;17.50;;;;;;4998345;28;20177;-78
2021/05/22 00:07:21;;;;;;;6.47;3.00;;;11.10;10.30;;;;;;4997253;28;20182;-78
2021/05/22 00:10:28;;;;;;;6.90;3.43;;;11.10;11.30;;;;;;4994990;28;20535;-79
2021/05/22 00:13:19;;;;;;;7.47;3.50;;;11.10;14.90;;;;;;5001166;28;20202;-79
2021/05/22 00:18:45;;;;;;;5.23;2.87;;;11.20;4.20;;;;;;5012562;28;20190;-80
2021/05/22 00:21:41;;;;;;;8.10;2.93;;;11.20;8.60;;;;;;5014271;28;20196;-78
2021/05/22 00:24:14;;;;;;;6.20;2.50;;;11.10;3.00;;;;;;5015836;28;20170;-79
2021/05/22 00:26:42;;;;;;;6.23;2.20;;;11.20;1.00;;;;;;5015708;28;20170;-79
2021/05/22 00:29:14;;;;;;;6.03;2.37;;;11.20;1.00;;;;;;5015582;28;20177;-79
2021/05/22 00:34:59;;;;;;;4.60;1.20;;;11.30;1.00;;;;;;5015277;28;20181;-78
2021/05/22 00:37:25;;;;;;;3.20;1.00;;;11.40;1.00;;;;;;5015457;28;20210;-78
2021/05/22 00:39:57;;;;;;;4.73;1.20;;;11.40;1.00;;;;;;5015786;28;20173;-79
2021/05/22 00:42:36;;;;;;;4.13;1.30;;;11.40;1.00;;;;;;5015117;28;20642;-80
2021/05/22 00:49:21;;;;;;;;;;;;;;;;;;;;;
2021/05/22 00:51:50;;;;;;;9.13;1.50;;;11.40;1.00;;;;;;5012878;28;20196;-79
2021/05/22 00:54:18;;;;;;;4.30;1.00;;;11.50;1.00;;;;;;5013046;28;20244;-79
2021/05/22 00:56:46;;;;;;;3.60;0.93;;;11.40;1.00;;;;;;5003766;28;20584;-79
2021/05/22 00:59:22;;;;;;;4.03;1.07;;;11.50;1.00;;;;;;5015197;28;20634;-79
2021/05/22 01:02:54;;;;;;;4.03;1.10;;;11.50;1.00;;;;;;5014953;28;20162;-79
2021/05/22 01:05:56;;;;;;;3.20;1.20;;;11.40;1.00;;;;;;5013915;28;20629;-78
2021/05/22 01:08:41;;;;;;;5.37;1.37;;;11.40;1.00;;;;;;5001647;28;20190;-78
2021/05/22 01:11:21;;;;;;;4.07;1.33;;;11.40;1.00;;;;;;5014909;28;20177;-79
2021/05/22 01:14:31;;;;;;;4.77;1.77;;;11.40;1.00;;;;;;5014737;28;20194;-79
2021/05/22 01:17:58;;;;;;;;;;;;;;;;;;;;;
2021/05/22 01:21:03;;;;;;;3.77;1.10;;;11.30;1.00;;;;;;4935003;29;20197;-80
2021/05/22 01:24:17;;;;;;;2.97;1.00;;;11.40;1.00;;;;;;4935407;29;20184;-81
2021/05/22 01:30:02;;;;;;;3.30;1.30;;;11.40;1.00;;;;;;4935673;29;20207;-81
2021/05/22 01:33:06;;;;;;;5.47;1.23;;;11.40;1.00;;;;;;5014840;28;20196;-81
2021/05/22 01:35:32;;;;;;;5.23;1.20;;;11.50;1.00;;;;;;5014475;28;20178;-80
2021/05/22 01:38:15;;;;;;;4.97;1.17;;;11.50;1.00;;;;;;5015220;28;20716;-81
2021/05/22 01:40:50;;;;;;;5.70;1.50;;;11.50;1.00;;;;;;5014427;28;20174;-80
2021/05/22 01:46:50;;;;;;;7.47;1.57;;;11.60;1.00;;;;;;5013979;28;20188;-81
2021/05/22 01:49:26;;;;;;;4.83;1.47;;;11.60;1.00;;;;;;5014577;28;20174;-81
2021/05/22 01:51:54;;;;;;;7.90;2.20;;;11.50;6.90;;;;;;5014063;28;20174;-80
2021/05/22 01:54:22;;;;;;;5.53;1.27;;;11.50;14.60;;;;;;5014086;28;20205;-81
2021/05/22 01:57:20;;;;;;;4.33;1.40;;;11.50;19.30;;;;;;5014333;28;20202;-82
2021/05/22 02:00:28;;;;;;;5.63;1.40;;;11.50;19.20;;;;;;5013032;28;20163;-81
2021/05/22 02:03:22;;;;;;;6.33;1.87;;;11.50;19.10;;;;;;5003573;28;20190;-81
2021/05/22 02:06:06;;;;;;;5.83;1.50;;;11.50;16.20;;;;;;5014547;28;20264;-81
2021/05/22 02:09:04;;;;;;;;;;;;;;;;;;;;;
2021/05/22 02:11:38;;;;;;;6.97;1.80;;;11.50;14.00;;;;;;5012607;28;20182;-82
2021/05/22 02:20:21;;;;;;;7.10;1.53;;;11.60;15.50;;;;;;5012951;28;20213;-81
2021/05/22 02:23:12;;;;;;;3.43;1.33;;;11.50;19.90;;;;;;5013911;28;20181;-81
2021/05/22 02:26:07;;;;;;;;;;;;;;;;;;;;;
2021/05/22 02:29:00;;;;;;;7.47;1.97;;;11.50;23.20;;;;;;5014754;28;20271;-81
2021/05/22 02:31:51;;;;;;;5.90;1.70;;;11.50;18.90;;;;;;4992381;28;20193;-81
2021/05/22 02:34:39;;;;;;;5.40;1.60;;;11.50;15.30;;;;;;4992710;28;20211;-81
2021/05/22 02:37:16;;;;;;;8.30;1.80;;;11.50;14.50;;;;;;5010849;28;20221;-80
2021/05/22 02:40:21;;;;;;;7.60;1.83;;;11.50;13.90;;;;;;5013211;28;20224;-81
2021/05/22 02:43:24;;;;;;;5.93;1.70;;;11.50;16.20;;;;;;5013769;28;20170;-80
2021/05/22 02:46:00;;;;;;;7.47;1.60;;;11.50;17.30;;;;;;5013329;28;20173;-81
2021/05/22 02:52:08;;;;;;;6.47;1.33;;;11.50;22.90;;;;;;5011224;28;20182;-81
2021/05/22 02:55:15;;;;;;;7.60;2.03;;;11.50;17.50;;;;;;5014243;28;20229;-82
2021/05/22 02:58:23;;;;;;;8.97;2.10;;;11.50;19.20;;;;;;5013208;28;20218;-81
2021/05/22 03:01:04;;;;;;;8.00;1.80;;;11.50;20.60;;;;;;4996795;28;20178;-81
2021/05/22 03:04:05;;;;;;;10.63;1.97;;;11.50;20.20;;;;;;5013108;28;20178;-81
2021/05/22 03:06:35;;;;;;;8.80;1.90;;;11.40;26.50;;;;;;5002311;28;20255;-82
2021/05/22 03:09:42;;;;;;;5.00;1.67;;;11.50;24.10;;;;;;5013639;28;20201;-81
2021/05/22 03:12:34;;;;;;;7.73;1.87;;;11.40;24.30;;;;;;5012182;28;20217;-81
2021/05/22 03:15:13;;;;;;;11.03;2.47;;;11.40;24.80;;;;;;5013219;28;20194;-81
2021/05/22 03:18:32;;;;;;;7.33;1.60;;;11.50;23.00;;;;;;5013137;28;20300;-81
2021/05/22 03:21:15;;;;;;;6.07;1.43;;;11.40;26.00;;;;;;5007412;28;20178;-81
2021/05/22 03:24:28;;;;;;;4.93;1.57;;;11.40;25.10;;;;;;5013160;28;20186;-80
2021/05/22 03:27:41;;;;;;;5.83;2.10;;;11.40;26.00;;;;;;5013294;28;20525;-82
2021/05/22 03:34:00;;;;;;;6.83;1.53;;;11.40;26.60;;;;;;4988925;28;20187;-81
2021/05/22 03:36:32;;;;;;;8.23;2.13;;;11.40;28.00;;;;;;4991404;28;20207;-81
2021/05/22 03:39:00;;;;;;;10.10;2.27;;;11.40;30.40;;;;;;4991847;28;20635;-81
2021/05/22 03:41:32;;;;;;;5.40;1.70;;;11.40;31.50;;;;;;5003617;28;20225;-81
2021/05/22 03:44:09;;;;;;;9.97;2.03;;;11.40;29.40;;;;;;5018882;28;20174;-80
2021/05/22 03:46:45;;;;;;;11.77;2.50;;;11.40;29.20;;;;;;5017478;28;20200;-82
2021/05/22 03:49:55;;;;;;;;;;;;;;;;;;;;;
2021/05/22 03:52:21;;;;;;;7.73;2.27;;;11.40;30.70;;;;;;5007293;28;20185;-81
2021/05/22 03:54:50;;;;;;;5.27;1.60;;;11.40;29.80;;;;;;5011364;28;20173;-81
2021/05/22 03:57:24;;;;;;;9.33;1.80;;;11.40;30.50;;;;;;5014718;28;20225;-82
2021/05/22 03:59:50;;;;;;;9.23;2.20;;;11.40;29.90;;;;;;5016514;28;20173;-81
2021/05/22 04:02:39;;;;;;;6.20;1.90;;;11.40;31.90;;;;;;5016611;28;20167;-81
2021/05/22 04:05:09;;;;;;;11.03;2.03;;;11.40;31.50;;;;;;5016291;28;20704;-81
2021/05/22 04:07:55;;;;;;;11.63;2.40;;;11.40;33.50;;;;;;5016516;28;20574;-81
2021/05/22 04:10:21;;;;;;;9.57;2.00;;;11.50;30.00;;;;;;5016069;28;20182;-81
2021/05/22 04:12:47;;;;;;;9.07;2.40;;;11.40;34.70;;;;;;5015748;28;20194;-81
2021/05/22 04:15:28;;;;;;;10.97;1.90;;;11.40;37.30;;;;;;5016323;28;20213;-82
2021/05/22 04:18:09;;;;;;;4.50;1.30;;;11.40;32.90;;;;;;5016153;28;20209;-81
2021/05/22 04:20:35;;;;;;;6.90;1.87;;;11.40;35.40;;;;;;5016296;28;20197;-81
2021/05/22 04:23:01;;;;;;;7.50;1.50;;;11.40;36.60;;;;;;5015754;28;20170;-81
2021/05/22 04:25:27;;;;;;;6.87;1.60;;;11.40;35.60;;;;;;5015823;28;20166;-81
2021/05/22 04:27:53;;;;;;;7.50;1.90;;;11.40;35.20;;;;;;5015666;28;20174;-82
2021/05/22 04:30:22;;;;;;;7.37;1.60;;;11.40;36.40;;;;;;5015995;28;20248;-81
2021/05/22 04:32:48;;;;;;;9.40;2.30;;;11.30;36.90;;;;;;5016137;28;20170;-81
2021/05/22 04:35:16;;;;;;;7.03;2.03;;;11.40;37.90;;;;;;5015830;28;20185;-80
2021/05/22 04:37:46;;;;;;;7.13;1.70;;;11.30;42.70;;;;;;5015629;28;20210;-81
2021/05/22 04:40:13;;;;;;;5.67;1.70;;;11.40;45.30;;;;;;5015458;28;20303;-81
2021/05/22 04:42:44;;;;;;;8.80;1.93;;;11.30;44.70;;;;;;5014028;28;20587;-81
2021/05/22 04:45:11;;;;;;;5.07;1.50;;;11.30;48.90;;;;;;5015719;28;20179;-81
2021/05/22 04:47:48;;;;;;;9.60;2.23;;;11.30;51.90;;;;;;5015683;28;20170;-81
2021/05/22 04:50:17;;;;;;;8.13;2.10;;;11.30;49.50;;;;;;5015487;28;20256;-82
2021/05/22 04:52:43;;;;;;;6.20;1.77;;;11.20;49.00;;;;;;5015209;28;20197;-82
2021/05/22 04:55:10;;;;;;;10.60;2.17;;;11.20;49.70;;;;;;5015841;28;20685;-81
2021/05/22 04:57:37;;;;;;;8.17;2.10;;;11.20;51.30;;;;;;5015801;28;20556;-81
2021/05/22 05:00:07;;;;;;;9.10;2.10;;;11.20;50.30;;;;;;5015329;28;20166;-81
2021/05/22 05:02:33;;;;;;;5.13;1.43;;;11.30;48.20;;;;;;5015146;28;20202;-82
2021/05/22 05:04:59;;;;;;;4.97;1.73;;;11.30;43.80;;;;;;5015202;28;20170;-81
2021/05/22 05:07:25;;;;;;;6.20;2.00;;;11.30;46.10;;;;;;5014024;28;20175;-81
2021/05/22 05:09:52;;;;;;;9.37;1.63;;;11.40;44.50;;;;;;5015408;28;20185;-81
2021/05/22 05:12:17;;;;;;;7.60;2.67;;;11.40;45.00;;;;;;5015100;28;20190;-82
2021/05/22 05:14:44;;;;;;;9.97;1.97;;;11.30;45.30;;;;;;5015126;28;20182;-81
2021/05/22 05:17:12;;;;;;;6.80;1.63;;;11.30;49.90;;;;;;5015277;28;20201;-81
2021/05/22 05:19:37;;;;;;;5.93;1.83;;;11.40;50.60;;;;;;5015175;28;20668;-81
2021/05/22 05:22:03;;;;;;;7.27;1.97;;;11.30;50.10;;;;;;5015363;28;20174;-82
2021/05/22 05:24:32;;;;;;;5.73;1.77;;;11.40;50.10;;;;;;5014933;28;20253;-80
2021/05/22 05:27:00;;;;;;;6.93;1.50;;;11.40;48.00;;;;;;5014381;28;20246;-80
2021/05/22 05:29:26;;;;;;;6.00;2.07;;;11.40;48.10;;;;;;5015049;28;20672;-81
2021/05/22 05:31:52;;;;;;;7.87;1.97;;;11.40;47.30;;;;;;5015260;28;20166;-80
2021/05/22 05:34:18;;;;;;;7.57;1.83;;;11.40;50.80;;;;;;5013502;28;20269;-81
2021/05/22 05:36:44;;;;;;;8.17;1.83;;;11.40;54.50;;;;;;5015002;28;20571;-80
2021/05/22 05:39:21;;;;;;;5.43;1.73;;;11.40;56.20;;;;;;5015265;28;20170;-80
2021/05/22 05:41:48;;;;;;;5.07;1.70;;;11.40;58.10;;;;;;5014743;28;20206;-80
2021/05/22 05:44:14;;;;;;;9.43;2.50;;;11.30;63.10;;;;;;5015149;28;20245;-80
2021/05/22 05:46:40;;;;;;;7.13;2.37;;;11.20;68.90;;;;;;5014637;28;20163;-80
2021/05/22 05:49:06;;;;;;;8.93;2.43;;;11.20;75.10;;;;;;5014472;28;20220;-80
2021/05/22 05:51:32;;;;;;;6.93;1.87;;;11.20;77.40;;;;;;5014310;28;20174;-81
2021/05/22 05:53:57;;;;;;;7.67;1.90;;;11.20;80.80;;;;;;5014362;28;20630;-81
2021/05/22 05:56:23;;;;;;;6.07;1.73;;;11.20;83.40;;;;;;5014968;28;20634;-81
2021/05/22 05:58:52;;;;;;;7.17;2.17;;;11.20;82.30;;;;;;5015047;28;20171;-80
2021/05/22 06:01:18;;;;;;;6.53;1.70;;;11.10;86.80;;;;;;5014562;28;20650;-80
2021/05/22 06:03:44;;;;;;;7.67;1.83;;;11.10;89.20;;;;;;5014927;28;20174;-81
2021/05/22 06:06:10;;;;;;;7.37;2.03;;;11.00;89.50;;;;;;5014147;28;20174;-81
2021/05/22 06:08:39;;;;;;;7.80;2.03;;;11.00;89.30;;;;;;5013858;28;20238;-80
2021/05/22 06:11:08;;;;;;;7.17;1.93;;;11.00;89.70;;;;;;5013008;28;20220;-80
2021/05/22 06:13:35;;;;;;;4.07;1.50;;;11.10;88.90;;;;;;5014095;28;20578;-80
2021/05/22 06:18:38;;;;;;;9.27;2.10;;;11.10;90.10;;;;;;5015007;28;20245;-80
2021/05/22 06:21:06;;;;;;;8.73;2.20;;;11.10;90.20;;;;;;5015599;28;20641;-80
2021/05/22 06:23:34;;;;;;;6.43;2.47;;;11.10;88.60;;;;;;5014464;28;20292;-80
2021/05/22 06:26:00;;;;;;;5.50;1.80;;;11.10;90.00;;;;;;5017507;28;20249;-80
2021/05/22 06:28:28;;;;;;;9.63;2.27;;;11.10;90.50;;;;;;5015872;28;20163;-81
2021/05/22 06:31:00;;;;;;;5.03;1.60;;;11.10;92.30;;;;;;5014916;28;20178;-80
2021/05/22 06:33:27;;;;;;;11.33;2.67;;;11.10;92.70;;;;;;5016663;28;20176;-80
2021/05/22 06:36:03;;;;;;;6.80;1.83;;;11.20;92.70;;;;;;5016631;28;20182;-80
2021/05/22 06:38:30;;;;;;;6.03;1.77;;;11.10;91.30;;;;;;5014060;28;20225;-81
2021/05/22 06:40:56;;;;;;;7.37;1.70;;;11.20;92.30;;;;;;5013822;28;20175;-81
2021/05/22 06:43:22;;;;;;;8.23;2.00;;;11.20;90.90;;;;;;5013860;28;20170;-80
2021/05/22 06:48:32;;;;;;;10.10;1.97;;;11.40;90.00;;;;;;5014654;28;20641;-81
2021/05/22 06:50:58;;;;;;;5.83;2.33;;;11.40;90.40;;;;;;5014019;28;20171;-80
2021/05/22 06:53:43;;;;;;;7.43;1.60;;;11.40;89.50;;;;;;5013585;28;20229;-81
2021/05/22 06:56:13;;;;;;;6.67;1.77;;;11.40;90.10;;;;;;5013226;28;20297;-80
2021/05/22 06:58:44;;;;;;;6.80;2.10;;;11.50;90.00;;;;;;5013323;28;20721;-81
2021/05/22 07:01:19;;;;;;;5.80;1.93;;;11.50;90.20;;;;;;5014028;28;20174;-80
2021/05/22 07:03:45;;;;;;;8.77;2.03;;;11.50;89.60;;;;;;5013818;28;20633;-80
2021/05/22 07:06:12;;;;;;;8.13;2.20;;;11.40;90.50;;;;;;5013580;28;20193;-81
2021/05/22 07:08:41;;;;;;;10.27;2.93;;;11.60;91.20;;;;;;5013310;28;20201;-80
2021/05/22 07:11:07;;;;;;;8.53;2.20;;;11.40;91.40;;;;;;5014105;28;20689;-80
2021/05/22 07:13:33;;;;;;;4.90;2.43;;;11.50;91.20;;;;;;5017975;28;20178;-79
2021/05/22 07:15:59;;;;;;;10.70;2.60;;;11.50;91.10;;;;;;5018467;28;20658;-79
2021/05/22 07:18:28;;;;;;;8.37;2.10;;;11.50;91.00;;;;;;5014278;28;20581;-80
2021/05/22 07:20:57;;;;;;;7.73;2.00;;;11.60;90.20;;;;;;5012110;28;20182;-79
2021/05/22 07:23:23;;;;;;;8.47;2.30;;;11.50;88.40;;;;;;5013361;28;20261;-81
2021/05/22 07:25:50;;;;;;;4.73;1.77;;;11.50;90.40;;;;;;5012835;28;20198;-81
2021/05/22 07:28:19;;;;;;;8.20;2.10;;;11.50;91.40;;;;;;5013744;28;20252;-80
2021/05/22 07:30:48;;;;;;;6.57;2.00;;;11.60;92.10;;;;;;5015967;28;20174;-79
2021/05/22 07:33:17;;;;;;;6.83;2.43;;;11.60;91.50;;;;;;5016536;28;20208;-81
2021/05/22 07:35:43;;;;;;;5.77;2.00;;;11.70;91.40;;;;;;5016918;28;20170;-82
2021/05/22 07:38:09;;;;;;;9.60;2.63;;;11.70;92.20;;;;;;5015684;28;20213;-80
2021/05/22 07:40:34;;;;;;;7.77;2.20;;;11.70;93.00;;;;;;5019640;28;20182;-80
2021/05/22 07:43:01;;;;;;;8.90;2.67;;;11.50;94.00;;;;;;5019656;28;20656;-79
2021/05/22 07:45:27;;;;;;;7.93;2.47;;;11.50;94.20;;;;;;5021759;28;20177;-79
2021/05/22 07:48:03;;;;;;;7.47;2.17;;;11.50;94.50;;;;;;5020921;28;20170;-80
2021/05/22 07:50:31;;;;;;;6.20;2.00;;;11.40;94.90;;;;;;5020150;28;20169;-80
2021/05/22 07:52:57;;;;;;;6.47;2.60;;;11.40;95.80;;;;;;5019781;28;20174;-82
2021/05/22 07:55:31;;;;;;;7.53;2.30;;;11.40;96.00;;;;;;5039297;28;20296;-79
2021/05/22 07:57:57;;;;;;;9.07;3.27;;;11.40;96.50;;;;;;5035520;28;20291;-79
2021/05/22 08:00:24;;;;;;;9.63;2.70;;;11.40;96.00;;;;;;5013111;28;20175;-78
2021/05/22 08:02:50;;;;;;;6.90;2.43;;;11.40;96.60;;;;;;5015983;28;20181;-82
2021/05/22 08:05:21;;;;;;;11.60;2.63;;;11.40;97.00;;;;;;5014684;28;20561;-79
2021/05/22 08:07:47;;;;;;;7.40;2.43;;;11.50;97.10;;;;;;5016055;28;20652;-79
2021/05/22 08:10:15;;;;;;;7.13;2.77;;;11.60;97.50;;;;;;5018918;28;20170;-79
2021/05/22 08:12:41;;;;;;;9.87;2.37;;;11.70;95.90;;;;;;5036078;28;20186;-79
2021/05/22 08:15:08;;;;;;;9.90;2.80;;;11.50;95.10;;;;;;5034675;28;20185;-79
2021/05/22 08:17:34;;;;;;;10.80;2.60;;;11.70;95.20;;;;;;5016047;28;20210;-79
2021/05/22 08:20:00;;;;;;;10.97;2.53;;;11.70;96.30;;;;;;5015938;28;20166;-79
2021/05/22 08:22:35;;;;;;;5.53;2.70;;;11.70;95.90;;;;;;5016356;28;20172;-80
2021/05/22 08:25:01;;;;;;;8.77;2.37;;;11.70;96.80;;;;;;5014718;28;20193;-80
2021/05/22 08:27:27;;;;;;;8.53;2.70;;;11.70;96.50;;;;;;5015715;28;20626;-80
2021/05/22 08:29:52;;;;;;;9.70;3.10;;;11.70;96.10;;;;;;5015384;28;20169;-81
2021/05/22 08:32:18;;;;;;;10.43;2.40;;;11.70;95.10;;;;;;5014715;28;20182;-79
2021/05/22 08:34:47;;;;;;;7.67;2.43;;;11.80;94.80;;;;;;5015511;28;20231;-79
2021/05/22 08:37:13;;;;;;;6.80;2.53;;;11.80;94.80;;;;;;5016452;28;20198;-79
2021/05/22 08:39:44;;;;;;;8.60;2.50;;;11.80;95.20;;;;;;5014638;28;20185;-79
2021/05/22 08:42:14;;;;;;;6.27;2.57;;;11.80;94.10;;;;;;5016768;28;20170;-80
2021/05/22 08:44:42;;;;;;;5.53;2.40;;;11.90;93.70;;;;;;5030335;28;20170;-80
2021/05/22 08:47:12;;;;;;;6.60;2.63;;;12.00;92.90;;;;;;5015676;28;20221;-80
2021/05/22 08:49:41;;;;;;;5.87;2.30;;;12.00;92.90;;;;;;5014375;28;20162;-80
2021/05/22 08:52:09;;;;;;;7.23;2.43;;;12.10;91.90;;;;;;5014009;28;20174;-80
2021/05/22 08:54:36;;;;;;;9.67;2.80;;;12.10;93.90;;;;;;5015178;28;20256;-82
2021/05/22 08:57:01;;;;;;;9.07;2.37;;;12.20;93.20;;;;;;5015657;28;20698;-80
2021/05/22 08:59:40;;;;;;;7.47;2.23;;;12.10;91.50;;;;;;5033907;28;20235;-81
2021/05/22 09:02:06;;;;;;;8.83;2.33;;;12.20;92.40;;;;;;5034743;28;20172;-80
2021/05/22 09:04:32;;;;;;;6.40;2.27;;;12.10;91.00;;;;;;5034654;28;20188;-80
2021/05/22 09:07:03;;;;;;;6.40;2.80;;;12.10;92.00;;;;;;5027522;28;20706;-81
2021/05/22 09:09:45;;;;;;;9.27;2.43;;;12.20;91.80;;;;;;5013678;28;20240;-80
2021/05/22 09:12:11;;;;;;;10.23;2.30;;;12.20;90.70;;;;;;5017384;28;20601;-79
2021/05/22 09:14:49;;;;;;;7.20;1.90;;;12.20;90.70;;;;;;5021516;28;20185;-80
2021/05/22 09:17:15;;;;;;;6.00;2.17;;;12.30;92.30;;;;;;5034083;28;20216;-80
2021/05/22 09:19:42;;;;;;;7.27;2.20;;;12.50;92.10;;;;;;5034238;28;20176;-80
2021/05/22 09:22:25;;;;;;;6.37;2.10;;;12.50;91.00;;;;;;5033516;28;20205;-80
2021/05/22 09:25:03;;;;;;;6.03;2.10;;;12.50;87.90;;;;;;5034950;28;20166;-82
2021/05/22 09:27:31;;;;;;;6.90;2.10;;;12.50;89.50;;;;;;5034393;28;20169;-80
2021/05/22 09:30:02;;;;;;;8.67;2.13;;;12.40;90.10;;;;;;5024328;28;20646;-80
2021/05/22 09:32:28;;;;;;;6.53;2.90;;;12.50;91.10;;;;;;5016239;28;20263;-84
2021/05/22 09:34:54;;;;;;;6.03;2.10;;;12.50;91.80;;;;;;5014706;28;20281;-80
2021/05/22 09:37:22;;;;;;;8.33;2.57;;;12.30;91.50;;;;;;5014626;28;20237;-79
2021/05/22 09:39:49;;;;;;;7.63;2.60;;;12.40;92.60;;;;;;5014879;28;20182;-79
2021/05/22 09:42:23;;;;;;;7.27;2.87;;;12.40;91.80;;;;;;5012828;28;20170;-79
2021/05/22 09:44:49;;;;;;;7.17;2.63;;;12.30;93.00;;;;;;5014129;28;20171;-80
2021/05/22 09:47:15;;;;;;;7.17;2.40;;;12.40;94.20;;;;;;5014162;28;20228;-79
2021/05/22 09:49:42;;;;;;;7.50;2.60;;;12.30;94.50;;;;;;5014144;28;20170;-80
2021/05/22 09:52:13;;;;;;;4.77;2.20;;;12.40;95.30;;;;;;5013120;28;20209;-79
2021/05/22 09:54:58;;;;;;;11.30;2.60;;;12.30;93.40;;;;;;5012833;28;20220;-79
2021/05/22 09:57:37;;;;;;;8.60;2.77;;;12.30;93.80;;;;;;5012300;28;20212;-80
2021/05/22 10:00:17;;;;;;;6.83;2.17;;;12.40;94.60;;;;;;5013401;28;20170;-79
2021/05/22 10:02:55;;;;;;;10.17;2.90;;;12.30;94.20;;;;;;5010403;28;20220;-80
2021/05/22 10:05:35;;;;;;;7.27;2.57;;;12.30;95.40;;;;;;5011176;28;20206;-79
2021/05/22 10:08:03;;;;;;;7.43;2.90;;;12.50;96.00;;;;;;5012117;28;20264;-79
2021/05/22 10:10:45;;;;;;;5.53;2.60;;;12.50;95.60;;;;;;5011930;28;20174;-80
2021/05/22 10:13:24;;;;;;;8.37;2.37;;;12.60;94.40;;;;;;5010534;28;20662;-80
2021/05/22 10:15:51;;;;;;;8.50;2.33;;;12.60;93.60;;;;;;5011574;28;20182;-79
2021/05/22 10:18:18;;;;;;;5.20;2.20;;;12.50;94.20;;;;;;5012218;28;20356;-81
2021/05/22 10:20:44;;;;;;;8.40;2.43;;;12.60;94.80;;;;;;5012654;28;20540;-81
2021/05/22 10:23:13;;;;;;;6.97;3.03;;;12.60;94.60;;;;;;5011675;28;20167;-81
2021/05/22 10:25:39;;;;;;;9.70;2.80;;;12.70;95.10;;;;;;5011742;28;20257;-79
2021/05/22 10:28:05;;;;;;;8.63;2.40;;;12.70;94.60;;;;;;5012129;28;20174;-80
2021/05/22 10:30:32;;;;;;;8.27;2.63;;;12.60;94.50;;;;;;5012606;28;20232;-79
2021/05/22 10:33:04;;;;;;;8.33;2.97;;;12.60;94.70;;;;;;5011646;28;20189;-80
2021/05/22 10:35:42;;;;;;;6.93;2.60;;;12.60;95.50;;;;;;5011626;28;20177;-80
2021/05/22 10:38:09;;;;;;;12.27;3.10;;;12.60;94.60;;;;;;5012094;28;20206;-79
2021/05/22 10:40:46;;;;;;;5.53;2.50;;;12.60;94.70;;;;;;5012489;28;20171;-79
2021/05/22 10:43:13;;;;;;;7.93;2.60;;;12.50;95.00;;;;;;5013443;28;20166;-79
2021/05/22 10:45:41;;;;;;;8.13;3.10;;;12.50;95.30;;;;;;5026357;28;20514;-80
2021/05/22 10:48:15;;;;;;;9.03;2.40;;;12.40;95.90;;;;;;5033858;28;20165;-79
2021/05/22 10:50:47;;;;;;;12.23;3.77;;;12.50;96.20;;;;;;5032881;28;20257;-79
2021/05/22 10:53:34;;;;;;;10.43;3.47;;;12.50;96.60;;;;;;5032545;28;20165;-80
2021/05/22 10:56:17;;;;;;;7.63;3.00;;;12.50;97.10;;;;;;5005803;28;20185;-80
2021/05/22 10:59:19;;;;;;;8.13;2.90;;;12.40;97.30;;;;;;5004027;28;20232;-79
2021/05/22 11:01:52;;;;;;;8.80;3.03;;;12.50;97.20;;;;;;5012970;28;20235;-80
2021/05/22 11:04:23;;;;;;;6.30;2.80;;;12.40;97.20;;;;;;5017986;28;20673;-80
2021/05/22 11:06:53;;;;;;;8.97;3.43;;;12.40;98.70;;;;;;5017031;28;20664;-79
2021/05/22 11:09:29;;;;;;;6.80;2.60;;;12.40;97.60;;;;;;5016989;28;20210;-80
2021/05/22 11:11:55;;;;;;;5.83;2.70;;;12.40;98.10;;;;;;5016499;28;20204;-80
2021/05/22 11:14:44;;;;;;;8.83;3.33;;;12.40;97.80;;;;;;5016332;28;20185;-79
2021/05/22 11:17:22;;;;;;;7.07;3.03;;;12.30;98.80;;;;;;5017600;28;20257;-80
2021/05/22 11:20:09;;;;;;;8.03;3.00;;;12.40;98.20;;;;;;5015832;28;20232;-80
2021/05/22 11:25:52;;;;;;;6.20;2.97;;;12.60;98.70;;;;;;5014291;28;20177;-80
2021/05/22 11:28:21;;;;;;;6.93;2.53;;;12.50;97.60;;;;;;5014676;28;20189;-80
2021/05/22 11:30:47;;;;;;;6.97;2.37;;;12.50;97.00;;;;;;5016244;28;20162;-80
2021/05/22 11:33:28;;;;;;;8.27;2.67;;;12.40;96.60;;;;;;5016887;28;20176;-80
2021/05/22 11:36:15;;;;;;;7.10;2.50;;;12.50;97.40;;;;;;5015933;28;20697;-86
2021/05/22 11:38:42;;;;;;;8.80;3.13;;;12.50;96.40;;;;;;5017191;28;20197;-81
2021/05/22 11:41:09;;;;;;;5.67;2.00;;;12.60;96.00;;;;;;5017159;28;20666;-80
2021/05/22 11:43:39;;;;;;;4.97;1.97;;;12.50;95.50;;;;;;5016551;28;20178;-81
2021/05/22 11:46:14;;;;;;;6.73;2.70;;;12.50;95.70;;;;;;5033074;28;20732;-80
2021/05/22 11:48:43;;;;;;;4.70;2.03;;;12.50;95.60;;;;;;5035571;28;20181;-80
2021/05/22 11:51:13;;;;;;;4.23;2.00;;;12.50;95.60;;;;;;5035040;28;20184;-80
2021/05/22 11:53:40;;;;;;;4.50;2.20;;;12.60;96.00;;;;;;5037787;28;20185;-79
2021/05/22 11:56:14;;;;;;;3.97;2.23;;;12.40;96.50;;;;;;5036204;28;20170;-80
2021/05/22 11:58:47;;;;;;;7.50;2.60;;;12.30;97.70;;;;;;5035921;28;20211;-82
2021/05/22 12:01:32;;;;;;;4.97;2.13;;;12.20;97.70;;;;;;5036891;28;20169;-80
2021/05/22 12:04:03;;;;;;;4.80;2.57;;;12.20;99.10;;;;;;5038130;28;20184;-80
2021/05/22 12:06:47;;;;;;;7.73;3.40;;;12.00;99.90;;;;;;5031968;28;20226;-82
2021/05/22 12:09:19;;;;;;;7.23;3.80;;;11.90;99.90;;;;;;5015013;28;20170;-80
2021/05/22 12:12:02;;;;;;;7.90;2.83;;;11.90;99.90;;;;;;5013963;28;20190;-83
2021/05/22 12:14:42;;;;;;;4.23;2.70;;;11.90;99.90;;;;;;5015285;28;20181;-83
2021/05/22 12:17:09;;;;;;;6.73;2.90;;;11.80;99.90;;;;;;5014407;28;20343;-81
2021/05/22 12:19:38;;;;;;;8.03;3.73;;;11.90;99.90;;;;;;5016838;28;20674;-80
2021/05/22 12:22:04;;;;;;;4.90;3.67;;;12.00;99.90;;;;;;5017033;28;20178;-82
2021/05/22 12:24:30;;;;;;;6.07;3.27;;;12.20;99.90;;;;;;5016920;28;20541;-83
2021/05/22 12:26:57;;;;;;;6.93;3.30;;;12.10;99.90;;;;;;5015542;28;20171;-81
2021/05/22 12:29:28;;;;;;;5.33;3.30;;;12.10;99.90;;;;;;5015791;28;20269;-81
2021/05/22 12:31:56;;;;;;;6.43;2.93;;;12.10;99.90;;;;;;5016637;28;20162;-80
2021/05/22 12:34:38;;;;;;;4.70;2.20;;;12.10;99.90;;;;;;5014985;28;20181;-81
2021/05/22 12:37:08;;;;;;;5.23;2.80;;;12.10;99.90;;;;;;5015803;28;20721;-81
2021/05/22 12:39:39;;;;;;;3.80;2.23;;;12.10;99.90;;;;;;5016003;28;20183;-82
2021/05/22 12:42:27;;;;;;;3.40;1.87;;;11.90;99.90;;;;;;5009604;28;20183;-83
2021/05/22 12:45:09;;;;;;;2.87;1.37;;;11.80;99.90;;;;;;5014673;28;20544;-82
2021/05/22 12:47:38;;;;;;;3.27;1.73;;;11.50;98.10;;;;;;5013418;28;20294;-81
2021/05/22 12:50:06;;;;;;;4.90;2.60;;;11.40;99.70;;;;;;5016728;28;20175;-80
2021/05/22 12:52:59;;;;;;;6.03;2.30;;;11.40;99.90;;;;;;5014523;28;20182;-81
2021/05/22 12:55:33;;;;;;;4.70;2.30;;;11.50;99.90;;;;;;5011021;28;20198;-80
2021/05/22 12:58:02;;;;;;;3.87;1.57;;;11.60;99.90;;;;;;5004870;28;20211;-81
2021/05/22 13:00:30;;;;;;;2.90;2.03;;;11.50;99.90;;;;;;5020801;28;20236;-80
2021/05/22 13:02:57;;;;;;;4.40;1.90;;;11.60;99.90;;;;;;5033000;28;20531;-80
2021/05/22 13:05:33;;;;;;;4.37;2.30;;;11.70;99.90;;;;;;5034087;28;20169;-80
2021/05/22 13:08:09;;;;;;;4.30;1.87;;;11.60;99.90;;;;;;5018339;28;20184;-83
2021/05/22 13:10:42;;;;;;;3.27;1.70;;;11.60;99.90;;;;;;5014011;28;20197;-81
2021/05/22 13:13:22;;;;;;;2.77;1.60;;;11.60;99.90;;;;;;5013810;28;20193;-82
2021/05/22 13:15:50;;;;;;;2.23;1.70;;;11.60;99.90;;;;;;5003127;28;20714;-82
2021/05/22 13:18:30;;;;;;;3.23;1.87;;;11.50;99.90;;;;;;5014579;28;20306;-80
2021/05/22 13:21:05;;;;;;;3.47;1.60;;;11.60;99.90;;;;;;5014493;28;20159;-80
2021/05/22 13:23:35;;;;;;;4.07;2.10;;;11.60;99.90;;;;;;5014804;28;20177;-81
2021/05/22 13:26:01;;;;;;;3.00;1.70;;;11.60;99.90;;;;;;5011992;28;20584;-81
2021/05/22 13:28:34;;;;;;;1.77;1.63;;;11.70;99.90;;;;;;5016713;28;20182;-80
2021/05/22 13:31:02;;;;;;;3.13;1.50;;;11.60;99.90;;;;;;5015473;28;20186;-80
2021/05/22 13:33:34;;;;;;;3.37;1.80;;;11.60;99.90;;;;;;5013096;28;20175;-83
2021/05/22 13:36:00;;;;;;;4.63;2.10;;;11.70;99.90;;;;;;5013629;28;20170;-81
2021/05/22 13:38:25;;;;;;;3.37;1.73;;;11.70;99.90;;;;;;5014077;28;20213;-83
2021/05/22 13:40:51;;;;;;;1.77;1.57;;;11.70;99.90;;;;;;5013310;28;20661;-80
2021/05/22 13:43:27;;;;;;;2.93;1.83;;;11.70;99.90;;;;;;5013223;28;20252;-80
2021/05/22 13:45:53;;;;;;;3.90;2.47;;;11.80;99.90;;;;;;5014773;28;20265;-81
2021/05/22 13:48:19;;;;;;;4.37;2.40;;;11.80;99.90;;;;;;5014312;28;20265;-81
2021/05/22 13:50:45;;;;;;;4.90;2.57;;;11.80;99.90;;;;;;5013540;28;20490;-81
2021/05/22 13:53:11;;;;;;;4.63;2.97;;;11.80;99.90;;;;;;5014294;28;20182;-81
2021/05/22 13:55:37;;;;;;;4.40;2.10;;;11.90;99.90;;;;;;5012742;28;20533;-80
2021/05/22 13:58:03;;;;;;;4.10;2.43;;;11.90;99.90;;;;;;5013615;28;20202;-80
2021/05/22 14:00:29;;;;;;;3.47;2.30;;;11.90;99.90;;;;;;5014870;28;20249;-81
2021/05/22 14:02:55;;;;;;;5.50;2.60;;;12.00;99.90;;;;;;5015117;28;20178;-81
2021/05/22 14:05:21;;;;;;;4.57;2.43;;;12.00;99.90;;;;;;5014589;28;20693;-80
2021/05/22 14:07:47;;;;;;;4.87;2.50;;;12.10;99.90;;;;;;5013301;28;20174;-80